Time;durP1;ratioP1;P1;durP2;ratioP2;P2;SDS_P1;SDS_P2;PMS_P1;PMS_P2;Temp;Humidity;BMP_temperature;BMP_pressure;BME280_temperature;BME280_humidity;BME280_pressure;Samples;Min_cycle;Max_cycle;Signal;HPM_P1;HPM_P2
2024/02/27 00:01:35;;;;;;;1.67;1.00;;;17.00;90.60;;;;;;5073406;28;20120;-45
2024/02/27 00:04:01;;;;;;;2.20;1.10;;;17.00;90.60;;;;;;5073369;28;20052;-45
2024/02/27 00:06:30;;;;;;;1.90;0.90;;;17.00;91.00;;;;;;5073216;28;20032;-45
2024/02/27 00:08:57;;;;;;;1.45;1.08;;;17.00;90.60;;;;;;5072999;28;20497;-45
2024/02/27 00:11:23;;;;;;;1.50;1.00;;;17.00;90.60;;;;;;5073190;28;20039;-45
2024/02/27 00:13:48;;;;;;;2.15;1.20;;;17.00;90.60;;;;;;5072978;28;20032;-45
2024/02/27 00:16:17;;;;;;;1.42;1.10;;;17.00;90.60;;;;;;5073167;28;20360;-45
2024/02/27 00:18:44;;;;;;;1.30;0.93;;;16.90;90.60;;;;;;5072836;28;20043;-45
2024/02/27 00:21:09;;;;;;;1.70;1.00;;;16.90;91.00;;;;;;5073003;28;20021;-45
2024/02/27 00:23:36;;;;;;;1.52;0.93;;;16.90;90.70;;;;;;5073102;28;20027;-45
2024/02/27 00:26:01;;;;;;;1.40;1.00;;;16.90;90.70;;;;;;5073323;28;20028;-45
2024/02/27 00:28:27;;;;;;;1.52;0.95;;;16.90;90.70;;;;;;5072557;28;20036;-45
2024/02/27 00:30:53;;;;;;;1.75;1.02;;;16.90;90.70;;;;;;5072651;28;20059;-45
2024/02/27 00:33:18;;;;;;;1.70;1.10;;;16.90;90.70;;;;;;5073109;28;20478;-45
2024/02/27 00:35:44;;;;;;;1.30;1.00;;;16.90;90.70;;;;;;5072777;28;20028;-44
2024/02/27 00:38:10;;;;;;;1.80;1.08;;;16.90;90.70;;;;;;5072658;28;20028;-45
2024/02/27 00:40:37;;;;;;;1.70;1.27;;;16.90;90.70;;;;;;5072528;28;20021;-45
2024/02/27 00:43:02;;;;;;;2.72;1.13;;;16.90;90.70;;;;;;5071503;28;20024;-45
2024/02/27 00:45:28;;;;;;;1.90;1.00;;;16.90;90.70;;;;;;5072591;28;20367;-45
2024/02/27 00:47:54;;;;;;;1.15;0.82;;;16.90;90.70;;;;;;5072468;28;20020;-45
2024/02/27 00:50:19;;;;;;;1.65;0.95;;;16.90;90.70;;;;;;5072218;28;20105;-45
2024/02/27 00:52:45;;;;;;;1.35;1.00;;;16.90;90.70;;;;;;5072281;28;20029;-45
2024/02/27 00:55:11;;;;;;;2.42;1.17;;;16.90;90.70;;;;;;5072327;28;20020;-45
2024/02/27 00:57:37;;;;;;;1.88;1.10;;;16.90;90.70;;;;;;5072139;28;20035;-45
2024/02/27 01:00:09;;;;;;;1.60;0.90;;;16.90;90.70;;;;;;5072021;28;20044;-45
2024/02/27 01:02:36;;;;;;;1.23;0.80;;;16.90;90.70;;;;;;5072225;28;20020;-44
2024/02/27 01:05:02;;;;;;;1.35;0.93;;;16.90;90.70;;;;;;5070713;28;20390;-45
2024/02/27 01:07:28;;;;;;;2.38;1.00;;;16.90;90.70;;;;;;5072286;28;20025;-45
2024/02/27 01:09:53;;;;;;;1.35;0.82;;;16.90;90.70;;;;;;5071788;28;20044;-45
2024/02/27 01:12:19;;;;;;;1.60;1.10;;;16.90;90.70;;;;;;5071776;28;20028;-45
2024/02/27 01:14:45;;;;;;;1.55;1.00;;;16.90;90.70;;;;;;5071895;28;20459;-44
2024/02/27 01:17:11;;;;;;;1.55;1.00;;;16.90;90.70;;;;;;5071803;28;20050;-43
2024/02/27 01:19:36;;;;;;;1.48;0.93;;;16.90;90.70;;;;;;5071438;28;20153;-45
2024/02/27 01:22:02;;;;;;;1.23;0.90;;;16.90;90.70;;;;;;5071777;28;20028;-45
2024/02/27 01:24:28;;;;;;;2.55;0.90;;;16.90;90.70;;;;;;5071679;28;20044;-44
2024/02/27 01:26:54;;;;;;;1.42;1.00;;;16.90;91.10;;;;;;5071312;28;20020;-43
2024/02/27 01:29:19;;;;;;;1.80;1.10;;;16.90;90.80;;;;;;5071458;28;20029;-44
2024/02/27 01:31:45;;;;;;;2.03;1.20;;;16.90;90.80;;;;;;5071532;28;20017;-45
2024/02/27 01:34:14;;;;;;;1.27;1.00;;;16.90;90.80;;;;;;5071488;28;20029;-45
2024/02/27 01:36:40;;;;;;;2.15;1.00;;;16.80;90.80;;;;;;5071442;28;20028;-45
2024/02/27 01:39:06;;;;;;;1.70;1.05;;;16.80;90.80;;;;;;5071251;28;20040;-45
2024/02/27 01:41:32;;;;;;;1.27;0.90;;;16.80;90.80;;;;;;5071364;28;20043;-45
2024/02/27 01:43:57;;;;;;;1.35;0.95;;;16.80;90.80;;;;;;5071461;28;20054;-45
2024/02/27 01:46:24;;;;;;;1.75;1.10;;;16.80;90.80;;;;;;5071405;28;20032;-45
2024/02/27 01:48:50;;;;;;;1.48;0.80;;;16.80;90.80;;;;;;5071120;28;20081;-45
2024/02/27 01:51:18;;;;;;;1.58;0.88;;;16.70;91.10;;;;;;5071147;28;20103;-45
2024/02/27 01:53:49;;;;;;;1.60;1.05;;;16.70;90.80;;;;;;5070885;28;20055;-45
2024/02/27 01:56:16;;;;;;;1.40;1.00;;;16.70;90.90;;;;;;5071085;28;20111;-45
2024/02/27 01:58:43;;;;;;;1.33;0.93;;;16.60;90.90;;;;;;5071031;28;20035;-45
2024/02/27 02:01:11;;;;;;;1.50;0.80;;;16.60;91.00;;;;;;5071146;28;20473;-44
2024/02/27 02:03:38;;;;;;;1.20;0.80;;;16.50;91.00;;;;;;5071161;28;20398;-45
2024/02/27 02:06:06;;;;;;;1.70;1.10;;;16.50;91.10;;;;;;5071137;28;20025;-45
2024/02/27 02:08:33;;;;;;;1.10;0.80;;;16.40;91.10;;;;;;5069535;28;20029;-45
2024/02/27 02:11:00;;;;;;;0.90;0.70;;;16.30;91.20;;;;;;5070977;28;20028;-45
2024/02/27 02:13:26;;;;;;;1.10;0.90;;;16.30;91.60;;;;;;5070976;28;20104;-45
2024/02/27 02:15:52;;;;;;;1.58;0.90;;;16.20;91.40;;;;;;5071245;28;20099;-45
2024/02/27 02:18:18;;;;;;;1.40;0.82;;;16.20;91.80;;;;;;5069374;28;20065;-45
2024/02/27 02:20:43;;;;;;;1.67;0.82;;;16.10;91.50;;;;;;5070682;28;20032;-45
2024/02/27 02:23:09;;;;;;;1.52;1.02;;;16.00;91.60;;;;;;5070840;28;20021;-45
2024/02/27 02:25:36;;;;;;;2.45;1.15;;;16.00;91.70;;;;;;5070229;28;20502;-45
2024/02/27 02:28:03;;;;;;;1.40;1.08;;;16.00;91.80;;;;;;5070432;28;20552;-44
2024/02/27 02:30:28;;;;;;;1.98;1.30;;;15.90;91.80;;;;;;5070692;28;20470;-43
2024/02/27 02:32:54;;;;;;;1.85;1.10;;;15.80;91.80;;;;;;5070782;28;20031;-45
2024/02/27 02:35:20;;;;;;;2.58;0.95;;;15.80;91.90;;;;;;5070748;28;20017;-43
2024/02/27 02:37:48;;;;;;;1.70;1.17;;;15.80;92.00;;;;;;5069384;28;20021;-43
2024/02/27 02:40:15;;;;;;;1.52;1.08;;;15.70;92.10;;;;;;5070494;28;20104;-44
2024/02/27 02:42:42;;;;;;;1.55;1.08;;;15.60;92.10;;;;;;5070924;28;20107;-45
2024/02/27 02:45:08;;;;;;;1.65;1.13;;;15.60;92.20;;;;;;5070740;28;20036;-45
2024/02/27 02:47:34;;;;;;;1.85;1.10;;;15.50;92.20;;;;;;5070718;28;20021;-45
2024/02/27 02:49:59;;;;;;;1.35;1.05;;;15.50;92.30;;;;;;5070519;28;20445;-45
2024/02/27 02:52:25;;;;;;;1.48;1.20;;;15.50;92.40;;;;;;5070647;28;20505;-45
2024/02/27 02:54:51;;;;;;;3.50;1.35;;;15.40;92.40;;;;;;5070557;28;20020;-45
2024/02/27 02:57:17;;;;;;;1.40;1.10;;;15.40;92.50;;;;;;5070532;28;20429;-45
2024/02/27 02:59:44;;;;;;;1.58;1.20;;;15.30;92.60;;;;;;5070565;28;20028;-45
2024/02/27 03:02:09;;;;;;;2.55;1.48;;;15.30;92.60;;;;;;5070589;28;20016;-45
2024/02/27 03:04:35;;;;;;;1.98;1.30;;;15.30;92.70;;;;;;5069234;28;20074;-45
2024/02/27 03:07:01;;;;;;;2.08;1.27;;;15.20;92.70;;;;;;5074192;28;20425;-45
2024/02/27 03:09:26;;;;;;;2.13;1.30;;;15.20;92.80;;;;;;5073962;28;20025;-45
2024/02/27 03:11:52;;;;;;;1.50;1.10;;;15.10;92.80;;;;;;5074493;28;20534;-45
2024/02/27 03:14:18;;;;;;;1.85;1.40;;;15.10;92.90;;;;;;5074338;28;20039;-45
2024/02/27 03:16:45;;;;;;;1.85;1.20;;;15.00;93.00;;;;;;5074059;28;20029;-45
2024/02/27 03:19:12;;;;;;;1.92;1.30;;;15.00;93.00;;;;;;5073959;28;20090;-44
2024/02/27 03:21:38;;;;;;;1.77;1.15;;;15.00;93.10;;;;;;5074141;28;20024;-45
2024/02/27 03:24:04;;;;;;;1.98;1.40;;;15.00;93.20;;;;;;5073963;28;20064;-45
2024/02/27 03:26:29;;;;;;;1.70;1.35;;;14.90;93.20;;;;;;5073948;28;20086;-45
2024/02/27 03:28:55;;;;;;;1.88;1.33;;;14.90;93.30;;;;;;5073956;28;20162;-44
2024/02/27 03:31:21;;;;;;;1.70;1.27;;;14.90;93.30;;;;;;5073713;28;20387;-45
2024/02/27 03:33:46;;;;;;;1.55;1.20;;;14.80;93.30;;;;;;5074054;28;20088;-45
2024/02/27 03:36:13;;;;;;;1.70;1.27;;;14.80;93.40;;;;;;5073861;28;20047;-45
2024/02/27 03:38:38;;;;;;;1.40;1.10;;;14.80;93.40;;;;;;5073493;28;20016;-45
2024/02/27 03:41:04;;;;;;;2.10;1.30;;;14.70;93.50;;;;;;5073600;28;20108;-45
2024/02/27 03:43:30;;;;;;;1.85;1.35;;;14.70;93.50;;;;;;5073828;28;20025;-45
2024/02/27 03:45:55;;;;;;;1.83;1.40;;;14.60;93.60;;;;;;5073645;28;20025;-44
2024/02/27 03:48:21;;;;;;;2.30;1.42;;;14.60;94.00;;;;;;5073449;28;20063;-45
2024/02/27 03:50:47;;;;;;;2.00;1.50;;;14.60;93.70;;;;;;5073372;28;20029;-45
2024/02/27 03:53:12;;;;;;;2.17;1.60;;;14.60;93.70;;;;;;5073396;28;20037;-45
2024/02/27 03:55:38;;;;;;;2.38;1.40;;;14.60;93.70;;;;;;5073693;28;20041;-45
2024/02/27 03:58:04;;;;;;;2.30;1.42;;;14.50;93.80;;;;;;5073358;28;20395;-45
2024/02/27 04:00:29;;;;;;;2.47;1.42;;;14.50;93.80;;;;;;5073169;28;20021;-45
2024/02/27 04:02:55;;;;;;;1.75;1.30;;;14.50;93.80;;;;;;5073481;28;20090;-45
2024/02/27 04:05:21;;;;;;;2.15;1.60;;;14.50;93.90;;;;;;5073224;28;20111;-45
2024/02/27 04:07:47;;;;;;;1.80;1.50;;;14.40;93.90;;;;;;5072984;28;20036;-43
2024/02/27 04:10:13;;;;;;;2.88;1.60;;;14.40;94.00;;;;;;5073045;28;20024;-43
2024/02/27 04:12:38;;;;;;;2.30;1.60;;;14.40;94.00;;;;;;5073101;28;20490;-45
2024/02/27 04:15:05;;;;;;;2.05;1.58;;;14.40;94.00;;;;;;5073110;28;20629;-45
2024/02/27 04:17:30;;;;;;;3.00;1.75;;;14.40;94.10;;;;;;5072614;28;20024;-44
2024/02/27 04:19:57;;;;;;;3.25;1.75;;;14.30;94.10;;;;;;5072709;28;20103;-45
2024/02/27 04:22:23;;;;;;;3.22;1.50;;;14.30;94.10;;;;;;5073053;28;20021;-45
2024/02/27 04:24:49;;;;;;;3.38;1.58;;;14.30;94.20;;;;;;5072904;28;20062;-45
2024/02/27 04:27:15;;;;;;;1.88;1.50;;;14.30;94.20;;;;;;5072599;28;20115;-45
2024/02/27 04:29:41;;;;;;;3.75;2.05;;;14.30;94.20;;;;;;5072536;28;20418;-45
2024/02/27 04:32:07;;;;;;;2.30;1.80;;;14.20;94.20;;;;;;5072649;28;20368;-45
2024/02/27 04:34:32;;;;;;;2.58;1.90;;;14.20;94.30;;;;;;5072774;28;20032;-45
2024/02/27 04:36:58;;;;;;;2.53;1.90;;;14.20;94.30;;;;;;5072162;28;20387;-45
2024/02/27 04:39:24;;;;;;;2.17;1.60;;;14.20;94.40;;;;;;5072394;28;20021;-45
2024/02/27 04:41:49;;;;;;;2.65;1.80;;;14.20;94.40;;;;;;5072778;28;20020;-45
2024/02/27 04:44:19;;;;;;;2.67;1.80;;;14.20;94.40;;;;;;5072597;28;20021;-44
2024/02/27 04:46:45;;;;;;;2.42;1.83;;;14.10;94.40;;;;;;5070965;28;20025;-45
2024/02/27 04:49:11;;;;;;;3.17;1.80;;;14.10;94.40;;;;;;5072746;28;20116;-45
2024/02/27 04:51:37;;;;;;;2.63;1.73;;;14.10;94.80;;;;;;5072309;28;20115;-44
2024/02/27 04:54:03;;;;;;;2.60;1.95;;;14.10;94.50;;;;;;5072305;28;20028;-45
2024/02/27 04:56:29;;;;;;;2.80;1.83;;;14.10;94.50;;;;;;5072282;28;20044;-44
2024/02/27 04:58:55;;;;;;;2.72;1.80;;;14.00;94.50;;;;;;5072156;28;20097;-44
2024/02/27 05:01:20;;;;;;;2.78;1.92;;;14.00;94.50;;;;;;5072024;28;20017;-44
2024/02/27 05:03:46;;;;;;;5.20;2.13;;;14.00;94.60;;;;;;5072117;28;20145;-44
2024/02/27 05:06:13;;;;;;;3.40;2.15;;;14.00;94.60;;;;;;5071870;28;20514;-44
2024/02/27 05:08:38;;;;;;;3.35;2.38;;;14.00;94.60;;;;;;5071834;28;20022;-45
2024/02/27 05:11:04;;;;;;;2.58;2.00;;;14.00;94.60;;;;;;5071821;28;20493;-45
2024/02/27 05:13:30;;;;;;;2.53;1.80;;;14.00;94.60;;;;;;5071848;28;20039;-44
2024/02/27 05:15:55;;;;;;;2.70;2.10;;;14.00;94.70;;;;;;5071819;28;20470;-45
2024/02/27 05:18:21;;;;;;;3.00;2.20;;;13.90;94.70;;;;;;5071715;28;20375;-45
2024/02/27 05:20:47;;;;;;;3.08;2.13;;;14.00;94.70;;;;;;5071567;28;20449;-45
2024/02/27 05:23:14;;;;;;;5.55;2.20;;;13.90;94.70;;;;;;5071863;28;20417;-45
2024/02/27 05:25:41;;;;;;;3.25;2.45;;;13.90;94.70;;;;;;5071647;28;20058;-45
2024/02/27 05:28:06;;;;;;;3.25;2.22;;;13.90;94.80;;;;;;5070890;28;20032;-44
2024/02/27 05:30:32;;;;;;;2.70;2.00;;;13.90;94.80;;;;;;5071513;28;20040;-45
2024/02/27 05:32:58;;;;;;;3.58;2.35;;;13.80;94.80;;;;;;5071455;28;20044;-44
2024/02/27 05:35:23;;;;;;;4.53;2.53;;;13.80;94.80;;;;;;5071378;28;20069;-45
2024/02/27 05:37:49;;;;;;;2.65;2.03;;;13.80;94.90;;;;;;5069982;28;20039;-45
2024/02/27 05:40:15;;;;;;;3.35;2.22;;;13.90;94.90;;;;;;5071268;28;20035;-45
2024/02/27 05:42:41;;;;;;;3.45;2.38;;;13.80;94.90;;;;;;5071378;28;20137;-44
2024/02/27 05:45:07;;;;;;;2.70;2.28;;;13.80;94.90;;;;;;5071356;28;20056;-45
2024/02/27 05:47:33;;;;;;;3.90;2.60;;;13.80;94.90;;;;;;5069783;28;20125;-43
2024/02/27 05:49:59;;;;;;;3.67;2.70;;;13.80;95.00;;;;;;5071547;28;20056;-44
2024/02/27 05:52:25;;;;;;;3.35;2.40;;;13.80;95.00;;;;;;5071312;28;20422;-44
2024/02/27 05:54:50;;;;;;;3.17;2.40;;;13.80;95.00;;;;;;5070153;28;20035;-45
2024/02/27 05:57:16;;;;;;;3.05;2.65;;;13.80;95.00;;;;;;5071056;28;20311;-44
2024/02/27 05:59:42;;;;;;;3.88;2.33;;;13.80;95.00;;;;;;5070933;28;20394;-43
2024/02/27 06:02:08;;;;;;;3.42;2.55;;;13.70;95.00;;;;;;5071100;28;20101;-45
2024/02/27 06:04:34;;;;;;;4.55;2.50;;;13.70;95.10;;;;;;5070039;28;20052;-44
2024/02/27 06:06:59;;;;;;;5.28;2.40;;;13.70;95.10;;;;;;5071121;28;20055;-44
2024/02/27 06:09:25;;;;;;;4.38;2.60;;;13.70;95.10;;;;;;5071103;28;20021;-44
2024/02/27 06:11:51;;;;;;;4.75;3.13;;;13.70;95.40;;;;;;5071234;28;20372;-44
2024/02/27 06:14:16;;;;;;;2.90;2.22;;;13.70;95.10;;;;;;5071012;28;20094;-44
2024/02/27 06:16:42;;;;;;;4.05;3.00;;;13.70;95.10;;;;;;5070909;28;20898;-44
2024/02/27 06:19:09;;;;;;;4.60;3.00;;;13.70;95.10;;;;;;5071001;28;20538;-43
2024/02/27 06:24:19;;;;;;;4.10;3.00;;;13.70;95.20;;;;;;5071064;28;20144;-45
2024/02/27 06:26:45;;;;;;;4.60;3.17;;;13.70;95.20;;;;;;5070591;28;20111;-43
2024/02/27 06:29:10;;;;;;;5.45;3.20;;;13.70;95.20;;;;;;5069232;28;20067;-43
2024/02/27 06:31:36;;;;;;;4.55;3.45;;;13.60;95.20;;;;;;5070793;28;20029;-43
2024/02/27 06:34:03;;;;;;;3.90;2.85;;;13.60;95.20;;;;;;5070933;28;20028;-44
2024/02/27 06:36:30;;;;;;;4.13;3.45;;;13.60;95.20;;;;;;5070909;28;20027;-44
2024/02/27 06:38:56;;;;;;;5.43;3.80;;;13.60;95.20;;;;;;5070536;28;20029;-44
2024/02/27 06:41:25;;;;;;;4.45;3.15;;;13.60;95.20;;;;;;5073785;28;20073;-44
2024/02/27 06:43:51;;;;;;;4.57;3.00;;;13.60;95.30;;;;;;5074721;28;20029;-42
2024/02/27 06:46:16;;;;;;;4.63;3.00;;;13.60;95.30;;;;;;5074605;28;20108;-44
2024/02/27 06:48:42;;;;;;;3.85;3.13;;;13.60;95.30;;;;;;5074535;28;20501;-43
2024/02/27 06:51:08;;;;;;;3.92;3.20;;;13.60;95.30;;;;;;5074664;28;20036;-45
2024/02/27 06:53:35;;;;;;;4.53;3.55;;;13.60;95.30;;;;;;5074625;28;20045;-45
2024/02/27 06:56:01;;;;;;;4.50;3.45;;;13.60;95.40;;;;;;5074618;28;20033;-45
2024/02/27 06:58:27;;;;;;;4.97;3.40;;;13.60;95.40;;;;;;5074308;28;20020;-45
2024/02/27 07:00:52;;;;;;;4.53;3.28;;;13.60;95.40;;;;;;5074224;28;20475;-45
2024/02/27 07:03:18;;;;;;;4.55;3.78;;;13.60;95.40;;;;;;5074469;28;20025;-44
2024/02/27 07:05:43;;;;;;;5.70;3.53;;;13.60;95.40;;;;;;5074307;28;20100;-45
2024/02/27 07:08:10;;;;;;;4.57;3.45;;;13.70;95.40;;;;;;5074181;28;20017;-45
2024/02/27 07:10:36;;;;;;;5.28;3.65;;;13.70;95.40;;;;;;5074126;28;20098;-44
2024/02/27 07:13:05;;;;;;;5.03;3.60;;;13.70;95.30;;;;;;5074165;28;20040;-45
2024/02/27 07:15:31;;;;;;;4.55;3.42;;;13.70;95.30;;;;;;5074217;28;20078;-45
2024/02/27 07:17:57;;;;;;;6.55;3.47;;;13.80;95.30;;;;;;5074086;28;20033;-45
2024/02/27 07:20:22;;;;;;;4.53;3.53;;;13.80;95.30;;;;;;5073963;28;20121;-44
2024/02/27 07:22:48;;;;;;;6.70;3.60;;;13.80;95.20;;;;;;5074112;28;20475;-45
2024/02/27 07:25:14;;;;;;;5.75;3.63;;;13.80;95.20;;;;;;5074081;28;20034;-44
2024/02/27 07:27:40;;;;;;;6.07;3.83;;;13.90;95.20;;;;;;5073603;28;20063;-45
2024/02/27 07:30:06;;;;;;;4.88;3.58;;;13.90;95.10;;;;;;5073743;28;20174;-45
2024/02/27 07:32:32;;;;;;;5.47;3.47;;;13.90;95.10;;;;;;5072533;28;20055;-45
2024/02/27 07:34:57;;;;;;;5.35;3.53;;;14.00;95.10;;;;;;5073858;28;20058;-44
2024/02/27 07:37:23;;;;;;;5.30;3.72;;;14.00;95.00;;;;;;5073626;28;20025;-44
2024/02/27 07:39:49;;;;;;;4.95;3.83;;;14.10;95.00;;;;;;5073751;28;20474;-45
2024/02/27 07:42:14;;;;;;;4.97;3.72;;;14.10;94.90;;;;;;5073577;28;20024;-42
2024/02/27 07:44:40;;;;;;;5.38;3.50;;;14.10;94.90;;;;;;5073783;28;20082;-44
2024/02/27 07:47:05;;;;;;;5.82;4.00;;;14.20;94.90;;;;;;5073647;28;20471;-44
2024/02/27 07:49:31;;;;;;;5.10;3.90;;;14.20;94.80;;;;;;5073343;28;20074;-43
2024/02/27 07:51:57;;;;;;;4.45;3.60;;;14.20;94.80;;;;;;5072957;28;20111;-44
2024/02/27 07:54:22;;;;;;;4.72;3.83;;;14.20;94.70;;;;;;5073413;28;20033;-45
2024/02/27 07:56:48;;;;;;;5.65;3.80;;;14.30;94.70;;;;;;5073155;28;20398;-43
2024/02/27 07:59:14;;;;;;;5.22;3.65;;;14.30;94.70;;;;;;5073235;28;20070;-44
2024/02/27 08:01:40;;;;;;;5.45;3.97;;;14.30;94.60;;;;;;5073386;28;20036;-44
2024/02/27 08:04:05;;;;;;;4.97;3.85;;;14.40;94.60;;;;;;5073366;28;20020;-43
2024/02/27 08:06:31;;;;;;;4.45;3.45;;;14.40;94.50;;;;;;5073217;28;20378;-43
2024/02/27 08:08:57;;;;;;;5.28;3.60;;;14.40;94.50;;;;;;5072866;28;20478;-45
2024/02/27 08:11:23;;;;;;;4.75;3.50;;;14.50;94.50;;;;;;5073569;28;20035;-45
2024/02/27 08:13:49;;;;;;;5.10;3.70;;;14.50;94.50;;;;;;5073354;28;20458;-45
2024/02/27 08:16:14;;;;;;;5.30;3.95;;;14.50;94.40;;;;;;5072958;28;20601;-45
2024/02/27 08:18:40;;;;;;;6.45;4.07;;;14.50;94.40;;;;;;5072861;28;20017;-45
2024/02/27 08:21:06;;;;;;;8.00;4.45;;;14.50;94.30;;;;;;5072779;28;20032;-45
2024/02/27 08:23:31;;;;;;;4.25;3.30;;;14.60;94.30;;;;;;5073045;28;20024;-45
2024/02/27 08:25:58;;;;;;;5.50;3.75;;;14.60;94.30;;;;;;5072700;28;20032;-45
2024/02/27 08:28:24;;;;;;;5.13;3.92;;;14.70;94.30;;;;;;5072538;28;20401;-45
2024/02/27 08:30:49;;;;;;;6.03;3.70;;;14.70;94.20;;;;;;5072694;28;20551;-45
2024/02/27 08:33:15;;;;;;;6.72;4.00;;;14.70;94.20;;;;;;5073039;28;20076;-45
2024/02/27 08:35:41;;;;;;;4.65;3.75;;;14.70;94.20;;;;;;5072653;28;20078;-44
2024/02/27 08:38:06;;;;;;;6.53;3.50;;;14.70;94.10;;;;;;5072445;28;20060;-43
2024/02/27 08:40:32;;;;;;;5.85;3.75;;;14.80;94.10;;;;;;5072294;28;20078;-45
2024/02/27 08:42:58;;;;;;;4.35;3.45;;;14.80;94.10;;;;;;5072566;28;20060;-45
2024/02/27 08:45:24;;;;;;;5.22;3.53;;;14.80;94.30;;;;;;5072467;28;20032;-45
2024/02/27 08:47:50;;;;;;;4.85;3.40;;;14.80;94.00;;;;;;5072319;28;20103;-45
2024/02/27 08:50:16;;;;;;;4.50;3.25;;;14.90;94.00;;;;;;5072216;28;20112;-45
2024/02/27 08:52:42;;;;;;;3.78;3.15;;;14.90;94.00;;;;;;5072487;28;20028;-45
2024/02/27 08:55:08;;;;;;;4.75;3.72;;;15.00;94.00;;;;;;5072784;28;20028;-45
2024/02/27 08:57:34;;;;;;;4.18;3.40;;;15.00;93.90;;;;;;5072044;28;20024;-45
2024/02/27 09:00:01;;;;;;;4.70;3.33;;;15.00;93.90;;;;;;5072124;28;20044;-45
2024/02/27 09:02:27;;;;;;;4.60;3.50;;;15.00;93.90;;;;;;5071540;28;20051;-44
2024/02/27 09:04:52;;;;;;;4.88;3.42;;;15.00;93.80;;;;;;5071993;28;20478;-45
2024/02/27 09:07:19;;;;;;;4.18;3.45;;;15.10;93.80;;;;;;5071922;28;20070;-45
2024/02/27 09:09:45;;;;;;;4.18;3.50;;;15.10;93.80;;;;;;5071641;28;20359;-45
2024/02/27 09:12:11;;;;;;;4.10;2.97;;;15.10;94.10;;;;;;5072319;28;20049;-45
2024/02/27 09:14:38;;;;;;;3.97;3.38;;;15.10;93.70;;;;;;5072103;28;20025;-45
2024/02/27 09:17:03;;;;;;;4.57;3.28;;;15.20;93.70;;;;;;5071793;28;20023;-45
2024/02/27 09:19:29;;;;;;;4.20;2.80;;;15.20;93.60;;;;;;5071629;28;20099;-45
2024/02/27 09:21:55;;;;;;;4.43;3.42;;;15.30;93.60;;;;;;5071968;28;20025;-45
2024/02/27 09:24:21;;;;;;;5.45;3.40;;;15.30;93.60;;;;;;5071685;28;20050;-45
2024/02/27 09:26:47;;;;;;;4.38;3.55;;;15.30;93.50;;;;;;5071495;28;20126;-45
2024/02/27 09:29:13;;;;;;;4.35;3.30;;;15.40;93.50;;;;;;5071511;28;20075;-45
2024/02/27 09:31:39;;;;;;;4.25;2.80;;;15.40;93.40;;;;;;5071628;28;20032;-45
2024/02/27 09:34:06;;;;;;;4.60;3.33;;;15.40;93.40;;;;;;5071549;28;20020;-45
2024/02/27 09:36:32;;;;;;;4.25;3.40;;;15.50;93.40;;;;;;5071277;28;20501;-45
2024/02/27 09:38:58;;;;;;;6.03;3.30;;;15.50;93.30;;;;;;5070933;28;20059;-45
2024/02/27 09:41:45;;;;;;;4.30;3.33;;;15.60;93.60;;;;;;5071702;28;20059;-45
2024/02/27 09:44:11;;;;;;;4.78;3.58;;;15.60;93.20;;;;;;5071439;28;20024;-44
2024/02/27 09:46:40;;;;;;;3.83;3.15;;;15.70;93.20;;;;;;5071437;28;20110;-45
2024/02/27 09:49:08;;;;;;;4.45;3.40;;;15.70;93.10;;;;;;5071078;28;20020;-45
2024/02/27 09:51:35;;;;;;;4.68;3.42;;;15.70;93.10;;;;;;5071211;28;20114;-43
2024/02/27 09:54:01;;;;;;;6.07;3.80;;;15.70;93.00;;;;;;5071124;28;20020;-44
2024/02/27 09:56:27;;;;;;;4.70;3.85;;;15.80;93.00;;;;;;5071141;28;20021;-44
2024/02/27 09:58:54;;;;;;;4.30;3.55;;;15.80;92.90;;;;;;5069830;28;20078;-45
2024/02/27 10:01:22;;;;;;;4.05;2.83;;;15.80;92.90;;;;;;5071143;28;20025;-45
2024/02/27 10:03:48;;;;;;;4.43;3.20;;;15.80;92.80;;;;;;5071300;28;20101;-45
2024/02/27 10:06:18;;;;;;;7.03;3.33;;;15.90;92.80;;;;;;5070981;28;20033;-45
2024/02/27 10:08:49;;;;;;;4.13;3.50;;;15.90;92.70;;;;;;5071131;28;20031;-45
2024/02/27 10:11:17;;;;;;;4.32;2.97;;;16.00;92.70;;;;;;5070923;28;20066;-45
2024/02/27 10:13:42;;;;;;;4.43;2.97;;;15.90;92.70;;;;;;5070779;28;20033;-45
2024/02/27 10:16:08;;;;;;;3.63;2.92;;;16.00;92.60;;;;;;5070942;28;20023;-45
2024/02/27 10:18:34;;;;;;;4.57;3.00;;;16.00;92.60;;;;;;5070681;28;20020;-46
2024/02/27 10:20:59;;;;;;;4.40;3.30;;;16.00;92.60;;;;;;5070688;28;20028;-45
2024/02/27 10:23:25;;;;;;;4.13;3.35;;;16.00;92.50;;;;;;5070905;28;20074;-45
2024/02/27 10:25:51;;;;;;;3.60;2.92;;;16.00;92.50;;;;;;5070815;28;20064;-45
2024/02/27 10:28:18;;;;;;;3.63;3.00;;;16.00;92.50;;;;;;5070601;28;20047;-45
2024/02/27 10:30:43;;;;;;;4.78;3.45;;;16.10;92.50;;;;;;5070735;28;20059;-45
2024/02/27 10:33:13;;;;;;;6.45;3.55;;;16.10;92.40;;;;;;5069296;28;20044;-45
2024/02/27 10:35:42;;;;;;;4.18;3.17;;;16.10;92.40;;;;;;5070731;28;20017;-42
2024/02/27 10:38:28;;;;;;;4.32;3.00;;;16.10;92.40;;;;;;5070560;28;20094;-44
2024/02/27 10:40:54;;;;;;;6.55;3.63;;;16.20;92.30;;;;;;5070478;28;20033;-45
2024/02/27 10:43:20;;;;;;;5.25;3.50;;;16.10;92.30;;;;;;5070815;28;20049;-45
2024/02/27 10:45:49;;;;;;;6.03;3.40;;;16.20;92.30;;;;;;5070548;28;20443;-44
2024/02/27 10:48:17;;;;;;;4.90;3.38;;;16.20;92.30;;;;;;5070568;28;20127;-45
2024/02/27 10:50:43;;;;;;;3.53;2.97;;;16.20;92.30;;;;;;5070463;28;20028;-45
2024/02/27 10:53:10;;;;;;;4.57;3.05;;;16.20;92.20;;;;;;5070598;28;20036;-45
2024/02/27 10:55:39;;;;;;;4.00;3.35;;;16.20;92.20;;;;;;5070825;28;20383;-45
2024/02/27 10:58:05;;;;;;;4.30;3.13;;;16.20;92.20;;;;;;5070440;28;20025;-43
2024/02/27 11:00:31;;;;;;;3.60;3.13;;;16.30;92.20;;;;;;5070457;28;20512;-43
2024/02/27 11:03:00;;;;;;;3.72;3.05;;;16.20;92.20;;;;;;5070655;28;20056;-43
2024/02/27 11:05:26;;;;;;;5.13;3.10;;;16.20;92.10;;;;;;5070543;28;20040;-43
2024/02/27 11:07:57;;;;;;;3.70;3.10;;;16.30;92.10;;;;;;5070311;28;20028;-44
2024/02/27 11:10:30;;;;;;;3.42;2.90;;;16.30;92.10;;;;;;5070379;28;20025;-43
2024/02/27 11:13:00;;;;;;;5.38;3.25;;;16.30;92.10;;;;;;5070593;28;20048;-44
2024/02/27 11:15:26;;;;;;;5.30;3.17;;;16.30;92.10;;;;;;5070642;28;20505;-44
2024/02/27 11:18:03;;;;;;;4.65;3.03;;;16.30;92.10;;;;;;5070236;28;20459;-45
2024/02/27 11:20:29;;;;;;;4.00;2.97;;;16.30;92.00;;;;;;5070243;28;20025;-44
2024/02/27 11:22:56;;;;;;;4.50;3.05;;;16.30;92.00;;;;;;5069092;28;20128;-44
2024/02/27 11:25:22;;;;;;;4.10;3.30;;;16.40;92.30;;;;;;5070241;28;20029;-42
2024/02/27 11:27:50;;;;;;;4.30;3.00;;;16.30;92.00;;;;;;5073421;28;20040;-43
2024/02/27 11:30:19;;;;;;;5.07;3.03;;;16.40;92.00;;;;;;5073749;28;20440;-44
2024/02/27 11:32:46;;;;;;;3.70;2.65;;;16.40;92.00;;;;;;5073981;28;20443;-45
2024/02/27 11:35:12;;;;;;;3.92;3.25;;;16.40;92.00;;;;;;5073821;28;20030;-44
2024/02/27 11:37:37;;;;;;;4.05;2.85;;;16.40;91.90;;;;;;5073506;28;20016;-45
2024/02/27 11:40:04;;;;;;;4.80;3.20;;;16.50;91.90;;;;;;5073691;28;20032;-45
2024/02/27 11:42:35;;;;;;;3.85;3.13;;;16.50;91.90;;;;;;5073787;28;20023;-45
2024/02/27 11:45:07;;;;;;;4.47;3.15;;;16.50;91.80;;;;;;5073796;28;20031;-45
2024/02/27 11:47:52;;;;;;;3.90;3.10;;;16.50;91.80;;;;;;5073560;28;20095;-45
2024/02/27 11:50:35;;;;;;;3.92;3.05;;;16.50;91.80;;;;;;5073403;28;20371;-45
2024/02/27 11:53:16;;;;;;;5.25;3.50;;;16.60;91.70;;;;;;5073568;28;20036;-44
2024/02/27 11:56:00;;;;;;;5.00;3.78;;;16.60;91.70;;;;;;5073863;28;20021;-45
2024/02/27 11:58:26;;;;;;;4.25;2.92;;;16.60;91.70;;;;;;5073383;28;20024;-45
2024/02/27 12:00:52;;;;;;;4.43;3.30;;;16.60;91.60;;;;;;5073354;28;20107;-45
2024/02/27 12:03:17;;;;;;;3.60;2.90;;;16.60;91.60;;;;;;5073396;28;20029;-45
2024/02/27 12:05:47;;;;;;;4.13;3.20;;;16.60;91.60;;;;;;5073253;28;20024;-45
2024/02/27 12:08:14;;;;;;;4.18;3.30;;;16.70;91.60;;;;;;5073108;28;20158;-45
2024/02/27 12:10:40;;;;;;;3.70;3.10;;;16.70;91.60;;;;;;5073104;28;20111;-45
2024/02/27 12:13:05;;;;;;;4.95;3.38;;;16.70;91.50;;;;;;5073691;28;20112;-45
2024/02/27 12:15:31;;;;;;;4.47;3.50;;;16.70;91.50;;;;;;5073236;28;20039;-45
2024/02/27 12:17:57;;;;;;;4.97;3.42;;;16.80;91.50;;;;;;5073009;28;20020;-45
2024/02/27 12:20:22;;;;;;;4.32;3.33;;;16.80;91.50;;;;;;5072898;28;20120;-45
2024/02/27 12:22:49;;;;;;;3.67;3.20;;;16.80;91.40;;;;;;5073131;28;20032;-45
2024/02/27 12:25:15;;;;;;;4.80;3.30;;;16.90;91.40;;;;;;5073060;28;20048;-45
2024/02/27 12:27:42;;;;;;;4.78;3.35;;;16.80;91.30;;;;;;5071995;28;20516;-45
2024/02/27 12:30:11;;;;;;;5.15;3.90;;;16.80;91.30;;;;;;5072735;28;20166;-45
2024/02/27 12:32:44;;;;;;;4.05;3.47;;;16.90;91.30;;;;;;5072961;28;20024;-45
2024/02/27 12:35:14;;;;;;;4.53;3.40;;;16.90;91.30;;;;;;5072798;28;20013;-45
2024/02/27 12:37:41;;;;;;;4.53;3.60;;;16.90;91.20;;;;;;5072452;28;20063;-45
2024/02/27 12:40:14;;;;;;;5.30;4.00;;;16.90;91.20;;;;;;5071084;28;20486;-45
2024/02/27 12:42:50;;;;;;;4.40;3.13;;;16.90;91.20;;;;;;5072783;28;20019;-45
2024/02/27 12:45:17;;;;;;;4.95;3.40;;;16.90;91.20;;;;;;5072604;28;20415;-45
2024/02/27 12:47:47;;;;;;;4.30;3.30;;;16.90;91.20;;;;;;5072354;28;20105;-45